createdAt,value
2022-12-09T00:02:23.181Z,91.6
2022-12-09T00:07:27.344Z,91.7
2022-12-09T00:12:31.912Z,91.9
2022-12-09T00:17:35.731Z,92
2022-12-09T00:22:39.935Z,92
2022-12-09T00:27:44.502Z,91.8
2022-12-09T00:32:48.228Z,92.3
2022-12-09T00:37:52.562Z,92.8
2022-12-09T00:42:57.067Z,93
2022-12-09T00:48:01.664Z,92.9
2022-12-09T00:53:05.398Z,92.8
2022-12-09T00:58:09.829Z,92.4
2022-12-09T01:03:14.404Z,92.3
2022-12-09T01:08:18.076Z,92
2022-12-09T01:13:21.657Z,91.3
2022-12-09T01:18:26.016Z,91.3
2022-12-09T01:23:30.429Z,93.2
2022-12-09T01:28:35.319Z,94.5
2022-12-09T01:33:38.537Z,94.7
2022-12-09T01:38:43.125Z,94.6
2022-12-09T01:43:47.907Z,94.4
2022-12-09T01:48:51.147Z,94
2022-12-09T01:53:55.964Z,93.4
2022-12-09T01:59:00.614Z,94.1
2022-12-09T02:04:04.075Z,94.6
2022-12-09T02:09:08.691Z,94.5
2022-12-09T02:14:12.957Z,93.6
2022-12-09T02:19:16.508Z,93.2
2022-12-09T02:24:21.229Z,93.7
2022-12-09T02:29:25.509Z,93.4
2022-12-09T02:34:30.086Z,93.4
2022-12-09T02:39:33.607Z,94.2
2022-12-09T02:44:38.078Z,94.8
2022-12-09T02:49:42.642Z,95.3
2022-12-09T02:54:46.144Z,95.7
2022-12-09T02:59:50.730Z,96.1
2022-12-09T03:04:55.631Z,96.7
2022-12-09T03:09:59.073Z,97
2022-12-09T03:15:03.343Z,97
2022-12-09T03:20:08.387Z,96.7
2022-12-09T03:25:11.583Z,96.1
2022-12-09T03:30:15.958Z,95.4
2022-12-09T03:35:20.736Z,94.8
2022-12-09T03:40:25.567Z,95.6
2022-12-09T03:45:28.833Z,95.2
2022-12-09T03:50:33.330Z,94.8
2022-12-09T03:55:37.592Z,95.2
2022-12-09T04:00:42.390Z,95.6
2022-12-09T04:05:47.215Z,95.6
2022-12-09T04:10:51.461Z,95.8
2022-12-09T04:15:54.940Z,95.6
2022-12-09T04:20:59.573Z,96.5
2022-12-09T04:26:04.299Z,96.7
2022-12-09T04:31:07.610Z,95.9
2022-12-09T04:36:12.409Z,95.7
2022-12-09T04:41:16.934Z,96.3
2022-12-09T04:46:21.155Z,96.6
2022-12-09T04:51:24.732Z,96.8
2022-12-09T04:56:29.517Z,97.3
2022-12-09T05:01:33.954Z,97.4
2022-12-09T05:06:37.434Z,97.7
2022-12-09T05:11:42.152Z,97.9
2022-12-09T05:16:46.813Z,98.7
2022-12-09T05:21:50.256Z,99.2
2022-12-09T05:26:54.857Z,100
2022-12-09T05:31:58.131Z,100
2022-12-09T05:37:02.971Z,100
2022-12-09T05:42:07.202Z,100
2022-12-09T05:47:10.725Z,100
2022-12-09T05:52:15.252Z,100
2022-12-09T05:57:19.896Z,100
2022-12-09T06:02:23.520Z,100
2022-12-09T06:07:28.122Z,100
2022-12-09T06:12:32.701Z,100
2022-12-09T06:17:36.058Z,100
2022-12-09T06:22:40.761Z,100
2022-12-09T06:27:45.107Z,100
2022-12-09T06:32:49.837Z,100
2022-12-09T06:37:53.545Z,100
2022-12-09T06:42:57.645Z,100
2022-12-09T06:48:02.564Z,100
2022-12-09T06:53:06.066Z,100
2022-12-09T06:58:10.188Z,100
2022-12-09T07:03:14.802Z,100
2022-12-09T07:08:18.438Z,100
2022-12-09T07:13:22.917Z,100
2022-12-09T07:18:27.689Z,100
2022-12-09T07:23:31.947Z,100
2022-12-09T07:28:35.781Z,100
2022-12-09T07:33:40.109Z,100
2022-12-09T07:38:44.615Z,100
2022-12-09T07:43:48.225Z,100
2022-12-09T07:48:52.832Z,100
2022-12-09T07:53:57.264Z,100
2022-12-09T07:59:00.823Z,99.5
2022-12-09T08:04:05.617Z,97.8
2022-12-09T08:09:10.283Z,96.9
2022-12-09T08:14:13.730Z,95.8
2022-12-09T08:19:17.991Z,93.2
2022-12-09T08:24:22.776Z,89.8
2022-12-09T08:29:26.951Z,88.4
2022-12-09T08:34:30.897Z,88.3
2022-12-09T08:39:35.068Z,87.8
2022-12-09T08:44:39.990Z,89.3
2022-12-09T08:49:43.615Z,92.8
2022-12-09T08:54:48.121Z,92.9
2022-12-09T08:59:52.548Z,92.9
2022-12-09T09:04:55.893Z,94.1
2022-12-09T09:10:00.485Z,91.9
2022-12-09T09:15:04.799Z,90.6
2022-12-09T09:20:08.643Z,90.5
2022-12-09T09:25:13.377Z,91.6
2022-12-09T09:30:17.772Z,90
2022-12-09T09:35:22.183Z,87.2
2022-12-09T09:40:25.949Z,87.1
2022-12-09T09:45:29.446Z,88.3
2022-12-09T09:50:33.814Z,86.6
2022-12-09T09:55:38.251Z,82.6
2022-12-09T10:00:41.939Z,84.4
2022-12-09T10:05:46.859Z,86.4
2022-12-09T10:10:51.512Z,84.8
2022-12-09T10:15:54.888Z,85.1
2022-12-09T10:20:58.998Z,86.7
2022-12-09T10:26:04.014Z,87.5
2022-12-09T10:31:08.009Z,88.2
2022-12-09T10:36:11.769Z,85.3
2022-12-09T10:41:15.951Z,84.3
2022-12-09T10:46:21.795Z,83.2
2022-12-09T10:51:24.644Z,79
2022-12-09T10:56:28.864Z,75.5
2022-12-09T11:01:33.191Z,72.8
2022-12-09T11:06:38.189Z,77.5
2022-12-09T11:11:42.854Z,75.8
2022-12-09T11:16:47.471Z,77.3
2022-12-09T11:21:50.819Z,74.9
2022-12-09T11:26:54.970Z,75
2022-12-09T11:31:59.938Z,77.5
2022-12-09T11:37:03.933Z,77.3
2022-12-09T11:42:12.900Z,73
2022-12-09T11:47:12.095Z,70.6
2022-12-09T11:52:16.597Z,71.2
2022-12-09T11:57:20.151Z,71.2
2022-12-09T12:02:24.721Z,67
2022-12-09T12:07:29.211Z,66.2
2022-12-09T12:12:32.760Z,68
2022-12-09T12:17:37.429Z,67.7
2022-12-09T12:22:41.899Z,66.5
2022-12-09T12:27:45.422Z,66.2
2022-12-09T12:33:08.793Z,67
2022-12-09T12:37:54.458Z,65.9
2022-12-09T12:42:59.012Z,64
2022-12-09T12:48:02.612Z,64
2022-12-09T12:53:07.091Z,68.5
2022-12-09T12:58:11.614Z,67.8
2022-12-09T13:03:15.167Z,70.6
2022-12-09T13:08:19.707Z,68.3
2022-12-09T13:13:24.243Z,67.4
2022-12-09T13:18:27.806Z,70
2022-12-09T13:23:32.314Z,69.7
2022-12-09T13:28:36.876Z,66.7
2022-12-09T13:33:40.358Z,69.1
2022-12-09T13:38:44.935Z,72.8
2022-12-09T13:43:49.493Z,71.4
2022-12-09T13:48:53.972Z,73.1
2022-12-09T13:53:57.535Z,73.7
2022-12-09T13:59:01.083Z,73.8
2022-12-09T14:04:05.637Z,75
2022-12-09T14:09:10.146Z,75.1
2022-12-09T14:14:13.740Z,74.9
2022-12-09T14:19:18.219Z,76.3
2022-12-09T14:24:22.754Z,75.5
2022-12-09T14:29:27.332Z,76.7
2022-12-09T14:34:30.837Z,76.5
2022-12-09T14:39:35.514Z,77
2022-12-09T14:44:39.972Z,77.5
2022-12-09T14:49:49.190Z,77.5
2022-12-09T14:54:47.996Z,77.7
2022-12-09T14:59:52.591Z,78
2022-12-09T15:04:57.354Z,78.1
2022-12-09T15:10:01.753Z,78.4
2022-12-09T15:15:06.282Z,79.5
2022-12-09T15:20:09.843Z,80
2022-12-09T15:25:14.373Z,79.8
2022-12-09T15:30:18.937Z,80.3
2022-12-09T15:35:23.392Z,81
2022-12-09T15:40:26.984Z,82.3
2022-12-09T15:45:31.535Z,83.5
2022-12-09T15:50:36.109Z,84.9
2022-12-09T15:55:39.639Z,87.5
2022-12-09T16:00:44.145Z,87.5
2022-12-09T16:05:48.682Z,87.3
2022-12-09T16:10:52.206Z,86.4
2022-12-09T16:15:56.830Z,86.8
2022-12-09T16:21:01.255Z,86.1
2022-12-09T16:26:07.234Z,85.2
2022-12-09T16:31:09.440Z,85.1
2022-12-09T16:36:13.894Z,85.5
2022-12-09T16:41:18.430Z,85.8
2022-12-09T16:46:22.080Z,86.5
2022-12-09T16:51:26.548Z,86.9
2022-12-09T16:56:31.039Z,87.3
2022-12-09T17:01:34.734Z,87.1
2022-12-09T17:06:39.165Z,87.4
2022-12-09T17:11:48.548Z,87.6
2022-12-09T17:16:47.353Z,87.8
2022-12-09T17:21:51.818Z,88.2
2022-12-09T17:26:56.315Z,88.3
2022-12-09T17:31:59.962Z,88
2022-12-09T17:37:04.392Z,87.9
2022-12-09T17:42:08.935Z,88
2022-12-09T17:47:13.507Z,88.8
2022-12-09T17:53:33.172Z,89.8
2022-12-09T17:58:37.705Z,90.2
2022-12-09T18:03:57.308Z,91.4
2022-12-09T18:08:46.924Z,92.6
2022-12-09T18:13:50.441Z,93.8
2022-12-09T18:18:54.983Z,94.8
2022-12-09T18:23:59.542Z,95.8
2022-12-09T18:29:03.043Z,96.2
2022-12-09T18:34:07.611Z,95.6
2022-12-09T18:39:12.167Z,95
2022-12-09T18:44:16.648Z,94.7
2022-12-09T18:49:20.256Z,93.8
2022-12-09T18:54:24.760Z,94
2022-12-09T18:59:29.257Z,94.9
2022-12-09T19:04:33.122Z,94.9
2022-12-09T19:09:37.367Z,94.7
2022-12-09T19:14:41.898Z,95.2
2022-12-09T19:19:45.485Z,95.5
2022-12-09T19:24:50.009Z,95.9
2022-12-09T19:29:54.557Z,95.9
2022-12-09T19:34:58.132Z,95.4
2022-12-09T19:40:02.611Z,95.9
2022-12-09T19:45:12.083Z,96.3
2022-12-09T19:50:11.719Z,96.8
2022-12-09T19:55:15.227Z,97.1
2022-12-09T20:00:19.750Z,97.3
2022-12-09T20:05:24.329Z,97.4
2022-12-09T20:10:27.850Z,97.2
2022-12-09T20:15:32.402Z,96.5
2022-12-09T20:20:36.955Z,96.5
2022-12-09T20:25:40.461Z,96.5
2022-12-09T20:30:45.057Z,95.7
2022-12-09T20:35:49.569Z,94.5
2022-12-09T20:40:53.098Z,95.1
2022-12-09T20:45:57.704Z,95.1
2022-12-09T20:51:02.195Z,94.7
2022-12-09T20:56:06.705Z,94.1
2022-12-09T21:01:10.321Z,95.2
2022-12-09T21:06:14.797Z,96.8
2022-12-09T21:11:19.315Z,97.4
2022-12-09T21:16:22.895Z,96.1
2022-12-09T21:21:27.426Z,95.5
2022-12-09T21:26:31.957Z,95.3
2022-12-09T21:31:35.604Z,95.1
2022-12-09T21:36:40.045Z,95.1
2022-12-09T21:41:44.614Z,97.3
2022-12-09T21:46:48.146Z,97.1
2022-12-09T21:51:52.745Z,96
2022-12-09T21:56:57.226Z,95.1
2022-12-09T22:02:01.763Z,95.9
2022-12-09T22:07:05.286Z,96.3
2022-12-09T22:12:09.830Z,96.1
2022-12-09T22:17:14.379Z,96.4
2022-12-09T22:22:17.949Z,97.5
2022-12-09T22:27:21.467Z,98.1
2022-12-09T22:32:26.002Z,98.1
2022-12-09T22:37:44.540Z,97.7
2022-12-09T22:42:35.098Z,97.4
2022-12-09T22:47:38.641Z,97.4
2022-12-09T22:52:43.210Z,97.6
2022-12-09T22:57:47.717Z,98.8
2022-12-09T23:02:51.403Z,98.9
2022-12-09T23:07:55.862Z,98.6
2022-12-09T23:13:00.308Z,97.9
2022-12-09T23:18:03.891Z,96.8
2022-12-09T23:23:08.444Z,97.1
2022-12-09T23:28:12.948Z,97.2
2022-12-09T23:33:16.483Z,96.9
2022-12-09T23:38:21.058Z,96.2
2022-12-09T23:43:25.606Z,96.5
2022-12-09T23:48:30.139Z,97.3
2022-12-09T23:53:33.704Z,97.7
2022-12-09T23:58:38.205Z,97.9
